sensor_id;sensor_type;location;lat;lon;timestamp;P1;durP1;ratioP1;P2;durP2;ratioP2
68614;SDS011;55593;51.994;5.882;2022-12-15T00:02:01;27.23;;;15.45;;
68614;SDS011;55593;51.994;5.882;2022-12-15T00:04:43;26.38;;;14.55;;
68614;SDS011;55593;51.994;5.882;2022-12-15T00:07:25;27.27;;;15.50;;
68614;SDS011;55593;51.994;5.882;2022-12-15T00:10:06;29.13;;;17.00;;
68614;SDS011;55593;51.994;5.882;2022-12-15T00:12:48;27.95;;;16.73;;
68614;SDS011;55593;51.994;5.882;2022-12-15T00:15:32;32.25;;;17.80;;
68614;SDS011;55593;51.994;5.882;2022-12-15T00:18:14;28.48;;;16.15;;
68614;SDS011;55593;51.994;5.882;2022-12-15T00:20:56;29.05;;;16.08;;
68614;SDS011;55593;51.994;5.882;2022-12-15T00:23:37;33.63;;;17.25;;
68614;SDS011;55593;51.994;5.882;2022-12-15T00:26:19;28.35;;;16.67;;
68614;SDS011;55593;51.994;5.882;2022-12-15T00:29:00;27.85;;;16.63;;
68614;SDS011;55593;51.994;5.882;2022-12-15T00:31:44;37.08;;;17.92;;
68614;SDS011;55593;51.994;5.882;2022-12-15T00:34:26;32.42;;;18.52;;
68614;SDS011;55593;51.994;5.882;2022-12-15T00:37:08;30.13;;;17.00;;
68614;SDS011;55593;51.994;5.882;2022-12-15T00:39:49;31.92;;;16.73;;
68614;SDS011;55593;51.994;5.882;2022-12-15T00:42:24;31.65;;;18.30;;
68614;SDS011;55593;51.994;5.882;2022-12-15T00:44:53;33.58;;;18.90;;
68614;SDS011;55593;51.994;5.882;2022-12-15T00:47:25;33.03;;;17.45;;
68614;SDS011;55593;51.994;5.882;2022-12-15T00:49:52;39.33;;;19.58;;
68614;SDS011;55593;51.994;5.882;2022-12-15T00:52:33;32.20;;;16.38;;
68614;SDS011;55593;51.994;5.882;2022-12-15T00:55:15;39.75;;;18.67;;
68614;SDS011;55593;51.994;5.882;2022-12-15T00:57:57;30.48;;;16.10;;
68614;SDS011;55593;51.994;5.882;2022-12-15T01:00:38;31.13;;;17.50;;
68614;SDS011;55593;51.994;5.882;2022-12-15T01:03:23;33.80;;;18.27;;
68614;SDS011;55593;51.994;5.882;2022-12-15T01:06:05;27.40;;;16.50;;
68614;SDS011;55593;51.994;5.882;2022-12-15T01:08:47;33.15;;;17.83;;
68614;SDS011;55593;51.994;5.882;2022-12-15T01:11:28;31.98;;;17.08;;
68614;SDS011;55593;51.994;5.882;2022-12-15T01:14:10;37.25;;;17.35;;
68614;SDS011;55593;51.994;5.882;2022-12-15T01:16:52;37.80;;;19.08;;
68614;SDS011;55593;51.994;5.882;2022-12-15T01:19:36;33.80;;;18.83;;
68614;SDS011;55593;51.994;5.882;2022-12-15T01:22:17;32.92;;;16.35;;
68614;SDS011;55593;51.994;5.882;2022-12-15T01:24:47;32.67;;;17.65;;
68614;SDS011;55593;51.994;5.882;2022-12-15T01:27:16;28.17;;;17.42;;
68614;SDS011;55593;51.994;5.882;2022-12-15T01:29:45;26.25;;;15.48;;
68614;SDS011;55593;51.994;5.882;2022-12-15T01:32:14;34.22;;;17.88;;
68614;SDS011;55593;51.994;5.882;2022-12-15T01:34:46;33.63;;;16.85;;
68614;SDS011;55593;51.994;5.882;2022-12-15T01:37:15;29.73;;;16.88;;
68614;SDS011;55593;51.994;5.882;2022-12-15T01:39:44;32.20;;;16.08;;
68614;SDS011;55593;51.994;5.882;2022-12-15T01:42:26;32.83;;;14.95;;
68614;SDS011;55593;51.994;5.882;2022-12-15T01:48:04;31.23;;;17.40;;
68614;SDS011;55593;51.994;5.882;2022-12-15T01:50:38;29.52;;;16.55;;
68614;SDS011;55593;51.994;5.882;2022-12-15T01:53:10;34.63;;;17.10;;
68614;SDS011;55593;51.994;5.882;2022-12-15T01:55:40;31.33;;;16.80;;
68614;SDS011;55593;51.994;5.882;2022-12-15T01:58:11;31.70;;;17.50;;
68614;SDS011;55593;51.994;5.882;2022-12-15T02:00:41;36.05;;;17.08;;
68614;SDS011;55593;51.994;5.882;2022-12-15T02:03:11;29.02;;;16.67;;
68614;SDS011;55593;51.994;5.882;2022-12-15T02:05:43;35.67;;;17.83;;
68614;SDS011;55593;51.994;5.882;2022-12-15T02:08:13;27.55;;;15.30;;
68614;SDS011;55593;51.994;5.882;2022-12-15T02:10:54;29.55;;;15.48;;
68614;SDS011;55593;51.994;5.882;2022-12-15T02:13:42;29.40;;;17.60;;
68614;SDS011;55593;51.994;5.882;2022-12-15T02:16:18;29.75;;;15.23;;
68614;SDS011;55593;51.994;5.882;2022-12-15T02:18:53;30.73;;;16.77;;
68614;SDS011;55593;51.994;5.882;2022-12-15T02:21:31;31.98;;;17.23;;
68614;SDS011;55593;51.994;5.882;2022-12-15T02:27:10;26.52;;;15.82;;
68614;SDS011;55593;51.994;5.882;2022-12-15T02:32:43;29.83;;;16.13;;
68614;SDS011;55593;51.994;5.882;2022-12-15T02:35:19;32.78;;;16.67;;
68614;SDS011;55593;51.994;5.882;2022-12-15T02:37:51;24.97;;;12.63;;
68614;SDS011;55593;51.994;5.882;2022-12-15T02:40:21;30.42;;;16.45;;
68614;SDS011;55593;51.994;5.882;2022-12-15T02:42:50;28.33;;;15.43;;
68614;SDS011;55593;51.994;5.882;2022-12-15T02:45:22;32.45;;;16.65;;
68614;SDS011;55593;51.994;5.882;2022-12-15T02:48:01;27.40;;;15.95;;
68614;SDS011;55593;51.994;5.882;2022-12-15T02:50:46;30.45;;;15.35;;
68614;SDS011;55593;51.994;5.882;2022-12-15T02:53:22;25.17;;;15.02;;
68614;SDS011;55593;51.994;5.882;2022-12-15T02:56:04;28.25;;;15.15;;
68614;SDS011;55593;51.994;5.882;2022-12-15T02:58:38;27.65;;;15.85;;
68614;SDS011;55593;51.994;5.882;2022-12-15T03:01:17;30.17;;;15.75;;
68614;SDS011;55593;51.994;5.882;2022-12-15T03:03:51;29.85;;;14.35;;
68614;SDS011;55593;51.994;5.882;2022-12-15T03:06:20;27.13;;;14.65;;
68614;SDS011;55593;51.994;5.882;2022-12-15T03:08:50;25.83;;;14.43;;
68614;SDS011;55593;51.994;5.882;2022-12-15T03:11:19;29.13;;;14.48;;
68614;SDS011;55593;51.994;5.882;2022-12-15T03:13:48;27.65;;;15.48;;
68614;SDS011;55593;51.994;5.882;2022-12-15T03:16:18;23.70;;;15.60;;
68614;SDS011;55593;51.994;5.882;2022-12-15T03:18:47;26.50;;;14.85;;
68614;SDS011;55593;51.994;5.882;2022-12-15T03:21:19;25.80;;;15.02;;
68614;SDS011;55593;51.994;5.882;2022-12-15T03:23:48;29.38;;;16.70;;
68614;SDS011;55593;51.994;5.882;2022-12-15T03:26:17;26.33;;;15.02;;
68614;SDS011;55593;51.994;5.882;2022-12-15T03:28:46;24.85;;;15.25;;
68614;SDS011;55593;51.994;5.882;2022-12-15T03:31:15;29.90;;;16.27;;
68614;SDS011;55593;51.994;5.882;2022-12-15T03:33:45;26.55;;;15.30;;
68614;SDS011;55593;51.994;5.882;2022-12-15T03:36:14;31.35;;;17.13;;
68614;SDS011;55593;51.994;5.882;2022-12-15T03:38:45;27.27;;;15.30;;
68614;SDS011;55593;51.994;5.882;2022-12-15T03:41:15;27.58;;;16.90;;
68614;SDS011;55593;51.994;5.882;2022-12-15T03:43:44;27.90;;;15.80;;
68614;SDS011;55593;51.994;5.882;2022-12-15T03:46:14;32.42;;;17.08;;
68614;SDS011;55593;51.994;5.882;2022-12-15T03:48:43;28.02;;;15.90;;
68614;SDS011;55593;51.994;5.882;2022-12-15T03:51:12;32.83;;;16.95;;
68614;SDS011;55593;51.994;5.882;2022-12-15T03:53:41;26.85;;;15.50;;
68614;SDS011;55593;51.994;5.882;2022-12-15T03:56:17;26.98;;;14.63;;
68614;SDS011;55593;51.994;5.882;2022-12-15T03:58:47;27.20;;;15.98;;
68614;SDS011;55593;51.994;5.882;2022-12-15T04:01:18;28.73;;;15.93;;
68614;SDS011;55593;51.994;5.882;2022-12-15T04:03:53;32.03;;;16.60;;
68614;SDS011;55593;51.994;5.882;2022-12-15T04:06:23;32.08;;;15.27;;
68614;SDS011;55593;51.994;5.882;2022-12-15T04:08:52;26.73;;;15.95;;
68614;SDS011;55593;51.994;5.882;2022-12-15T04:11:24;32.97;;;16.10;;
68614;SDS011;55593;51.994;5.882;2022-12-15T04:13:53;26.73;;;14.05;;
68614;SDS011;55593;51.994;5.882;2022-12-15T04:16:22;32.75;;;17.48;;
68614;SDS011;55593;51.994;5.882;2022-12-15T04:18:51;24.38;;;15.10;;
68614;SDS011;55593;51.994;5.882;2022-12-15T04:21:33;29.92;;;15.52;;
68614;SDS011;55593;51.994;5.882;2022-12-15T04:24:02;28.17;;;17.15;;
68614;SDS011;55593;51.994;5.882;2022-12-15T04:26:47;34.90;;;17.35;;
68614;SDS011;55593;51.994;5.882;2022-12-15T04:29:28;31.58;;;17.30;;
68614;SDS011;55593;51.994;5.882;2022-12-15T04:32:10;30.60;;;17.27;;
68614;SDS011;55593;51.994;5.882;2022-12-15T04:34:51;27.40;;;16.38;;
68614;SDS011;55593;51.994;5.882;2022-12-15T04:37:33;31.45;;;16.83;;
68614;SDS011;55593;51.994;5.882;2022-12-15T04:40:14;27.00;;;16.17;;
68614;SDS011;55593;51.994;5.882;2022-12-15T04:42:58;31.55;;;16.65;;
68614;SDS011;55593;51.994;5.882;2022-12-15T04:45:40;35.67;;;16.30;;
68614;SDS011;55593;51.994;5.882;2022-12-15T04:48:22;31.52;;;17.55;;
68614;SDS011;55593;51.994;5.882;2022-12-15T04:51:03;27.88;;;15.07;;
68614;SDS011;55593;51.994;5.882;2022-12-15T04:53:45;29.13;;;16.52;;
68614;SDS011;55593;51.994;5.882;2022-12-15T04:56:26;32.42;;;16.90;;
68614;SDS011;55593;51.994;5.882;2022-12-15T04:59:11;38.75;;;15.70;;
68614;SDS011;55593;51.994;5.882;2022-12-15T05:01:52;25.48;;;15.35;;
68614;SDS011;55593;51.994;5.882;2022-12-15T05:04:34;34.65;;;16.90;;
68614;SDS011;55593;51.994;5.882;2022-12-15T05:07:15;33.83;;;15.43;;
68614;SDS011;55593;51.994;5.882;2022-12-15T05:09:57;30.92;;;16.38;;
68614;SDS011;55593;51.994;5.882;2022-12-15T05:12:39;27.45;;;15.60;;
68614;SDS011;55593;51.994;5.882;2022-12-15T05:15:23;27.65;;;16.23;;
68614;SDS011;55593;51.994;5.882;2022-12-15T05:18:04;30.40;;;15.88;;
68614;SDS011;55593;51.994;5.882;2022-12-15T05:20:46;31.73;;;17.52;;
68614;SDS011;55593;51.994;5.882;2022-12-15T05:23:27;32.88;;;16.92;;
68614;SDS011;55593;51.994;5.882;2022-12-15T05:26:09;31.40;;;16.95;;
68614;SDS011;55593;51.994;5.882;2022-12-15T05:28:51;32.55;;;17.38;;
68614;SDS011;55593;51.994;5.882;2022-12-15T05:31:35;34.38;;;16.35;;
68614;SDS011;55593;51.994;5.882;2022-12-15T05:34:20;34.70;;;17.75;;
68614;SDS011;55593;51.994;5.882;2022-12-15T05:36:51;33.38;;;18.60;;
68614;SDS011;55593;51.994;5.882;2022-12-15T05:39:21;28.42;;;16.90;;
68614;SDS011;55593;51.994;5.882;2022-12-15T05:41:51;30.67;;;16.50;;
68614;SDS011;55593;51.994;5.882;2022-12-15T05:44:22;29.73;;;17.45;;
68614;SDS011;55593;51.994;5.882;2022-12-15T05:46:54;29.05;;;16.73;;
68614;SDS011;55593;51.994;5.882;2022-12-15T05:49:23;34.50;;;17.40;;
68614;SDS011;55593;51.994;5.882;2022-12-15T05:51:52;33.25;;;16.95;;
68614;SDS011;55593;51.994;5.882;2022-12-15T05:54:22;33.20;;;17.98;;
68614;SDS011;55593;51.994;5.882;2022-12-15T05:56:51;33.25;;;18.15;;
68614;SDS011;55593;51.994;5.882;2022-12-15T05:59:20;32.15;;;17.88;;
68614;SDS011;55593;51.994;5.882;2022-12-15T06:01:49;34.28;;;17.55;;
68614;SDS011;55593;51.994;5.882;2022-12-15T06:04:21;39.22;;;18.95;;
68614;SDS011;55593;51.994;5.882;2022-12-15T06:06:50;28.38;;;16.73;;
68614;SDS011;55593;51.994;5.882;2022-12-15T06:09:19;34.47;;;18.90;;
68614;SDS011;55593;51.994;5.882;2022-12-15T06:11:48;36.53;;;19.42;;
68614;SDS011;55593;51.994;5.882;2022-12-15T06:14:18;32.08;;;18.58;;
68614;SDS011;55593;51.994;5.882;2022-12-15T06:16:47;37.75;;;19.38;;
68614;SDS011;55593;51.994;5.882;2022-12-15T06:19:16;32.15;;;18.95;;
68614;SDS011;55593;51.994;5.882;2022-12-15T06:21:48;33.88;;;19.38;;
68614;SDS011;55593;51.994;5.882;2022-12-15T06:24:17;33.50;;;19.02;;
68614;SDS011;55593;51.994;5.882;2022-12-15T06:26:46;31.75;;;18.50;;
68614;SDS011;55593;51.994;5.882;2022-12-15T06:29:15;30.63;;;18.38;;
68614;SDS011;55593;51.994;5.882;2022-12-15T06:31:45;38.50;;;18.92;;
68614;SDS011;55593;51.994;5.882;2022-12-15T06:34:14;35.22;;;20.33;;
68614;SDS011;55593;51.994;5.882;2022-12-15T06:36:44;36.83;;;19.90;;
68614;SDS011;55593;51.994;5.882;2022-12-15T06:39:16;41.83;;;19.67;;
68614;SDS011;55593;51.994;5.882;2022-12-15T06:41:45;36.50;;;19.73;;
68614;SDS011;55593;51.994;5.882;2022-12-15T06:44:14;34.30;;;20.30;;
68614;SDS011;55593;51.994;5.882;2022-12-15T06:46:43;34.42;;;19.88;;
68614;SDS011;55593;51.994;5.882;2022-12-15T06:49:13;35.97;;;20.23;;
68614;SDS011;55593;51.994;5.882;2022-12-15T06:51:42;37.85;;;19.77;;
68614;SDS011;55593;51.994;5.882;2022-12-15T06:54:11;34.92;;;20.23;;
68614;SDS011;55593;51.994;5.882;2022-12-15T06:56:43;36.75;;;20.20;;
68614;SDS011;55593;51.994;5.882;2022-12-15T06:59:12;37.97;;;20.48;;
68614;SDS011;55593;51.994;5.882;2022-12-15T07:01:41;37.38;;;19.73;;
68614;SDS011;55593;51.994;5.882;2022-12-15T07:04:10;39.80;;;20.50;;
68614;SDS011;55593;51.994;5.882;2022-12-15T07:06:40;35.58;;;19.35;;
68614;SDS011;55593;51.994;5.882;2022-12-15T07:09:11;33.38;;;19.92;;
68614;SDS011;55593;51.994;5.882;2022-12-15T07:11:44;36.22;;;19.95;;
68614;SDS011;55593;51.994;5.882;2022-12-15T07:14:15;44.25;;;19.92;;
68614;SDS011;55593;51.994;5.882;2022-12-15T07:16:44;36.50;;;20.75;;
68614;SDS011;55593;51.994;5.882;2022-12-15T07:19:13;35.92;;;18.52;;
68614;SDS011;55593;51.994;5.882;2022-12-15T07:21:42;38.17;;;19.70;;
68614;SDS011;55593;51.994;5.882;2022-12-15T07:24:11;38.95;;;22.05;;
68614;SDS011;55593;51.994;5.882;2022-12-15T07:26:44;34.28;;;20.77;;
68614;SDS011;55593;51.994;5.882;2022-12-15T07:29:13;35.58;;;19.25;;
68614;SDS011;55593;51.994;5.882;2022-12-15T07:31:42;35.70;;;18.52;;
68614;SDS011;55593;51.994;5.882;2022-12-15T07:34:11;36.50;;;21.00;;
68614;SDS011;55593;51.994;5.882;2022-12-15T07:36:41;34.45;;;19.70;;
68614;SDS011;55593;51.994;5.882;2022-12-15T07:39:10;37.83;;;21.73;;
68614;SDS011;55593;51.994;5.882;2022-12-15T07:41:40;33.00;;;19.48;;
68614;SDS011;55593;51.994;5.882;2022-12-15T07:44:12;33.33;;;20.58;;
68614;SDS011;55593;51.994;5.882;2022-12-15T07:46:41;40.75;;;22.30;;
68614;SDS011;55593;51.994;5.882;2022-12-15T07:49:14;35.58;;;21.25;;
68614;SDS011;55593;51.994;5.882;2022-12-15T07:51:43;39.80;;;21.77;;
68614;SDS011;55593;51.994;5.882;2022-12-15T07:54:12;35.22;;;21.23;;
68614;SDS011;55593;51.994;5.882;2022-12-15T07:56:42;32.13;;;19.63;;
68614;SDS011;55593;51.994;5.882;2022-12-15T07:59:14;36.25;;;19.60;;
68614;SDS011;55593;51.994;5.882;2022-12-15T08:01:43;37.75;;;20.23;;
68614;SDS011;55593;51.994;5.882;2022-12-15T08:04:12;38.83;;;19.80;;
68614;SDS011;55593;51.994;5.882;2022-12-15T08:06:42;34.53;;;20.95;;
68614;SDS011;55593;51.994;5.882;2022-12-15T08:09:11;37.20;;;20.33;;
68614;SDS011;55593;51.994;5.882;2022-12-15T08:11:40;34.47;;;20.35;;
68614;SDS011;55593;51.994;5.882;2022-12-15T08:14:09;35.60;;;20.02;;
68614;SDS011;55593;51.994;5.882;2022-12-15T08:16:41;33.53;;;20.02;;
68614;SDS011;55593;51.994;5.882;2022-12-15T08:19:11;34.75;;;20.67;;
68614;SDS011;55593;51.994;5.882;2022-12-15T08:21:41;37.05;;;21.23;;
68614;SDS011;55593;51.994;5.882;2022-12-15T08:24:13;40.38;;;22.48;;
68614;SDS011;55593;51.994;5.882;2022-12-15T08:26:44;39.10;;;21.55;;
68614;SDS011;55593;51.994;5.882;2022-12-15T08:29:14;41.03;;;21.88;;
68614;SDS011;55593;51.994;5.882;2022-12-15T08:31:46;36.53;;;22.40;;
68614;SDS011;55593;51.994;5.882;2022-12-15T08:34:15;42.97;;;22.67;;
68614;SDS011;55593;51.994;5.882;2022-12-15T08:36:44;35.33;;;20.58;;
68614;SDS011;55593;51.994;5.882;2022-12-15T08:39:13;46.20;;;22.90;;
68614;SDS011;55593;51.994;5.882;2022-12-15T08:41:43;40.08;;;22.45;;
68614;SDS011;55593;51.994;5.882;2022-12-15T08:44:12;42.28;;;23.42;;
68614;SDS011;55593;51.994;5.882;2022-12-15T08:46:42;40.70;;;22.58;;
68614;SDS011;55593;51.994;5.882;2022-12-15T08:49:13;39.83;;;21.95;;
68614;SDS011;55593;51.994;5.882;2022-12-15T08:51:43;37.55;;;22.75;;
68614;SDS011;55593;51.994;5.882;2022-12-15T08:54:12;38.97;;;21.40;;
68614;SDS011;55593;51.994;5.882;2022-12-15T08:56:41;41.20;;;22.95;;
68614;SDS011;55593;51.994;5.882;2022-12-15T08:59:10;44.25;;;22.42;;
68614;SDS011;55593;51.994;5.882;2022-12-15T09:01:40;39.67;;;22.63;;
68614;SDS011;55593;51.994;5.882;2022-12-15T09:04:09;39.97;;;22.70;;
68614;SDS011;55593;51.994;5.882;2022-12-15T09:06:41;44.25;;;24.10;;
68614;SDS011;55593;51.994;5.882;2022-12-15T09:09:11;46.58;;;24.63;;
68614;SDS011;55593;51.994;5.882;2022-12-15T09:11:40;41.08;;;22.40;;
68614;SDS011;55593;51.994;5.882;2022-12-15T09:14:10;43.85;;;23.88;;
68614;SDS011;55593;51.994;5.882;2022-12-15T09:16:39;41.28;;;24.65;;
68614;SDS011;55593;51.994;5.882;2022-12-15T09:19:08;43.00;;;24.73;;
68614;SDS011;55593;51.994;5.882;2022-12-15T09:21:40;40.38;;;23.98;;
68614;SDS011;55593;51.994;5.882;2022-12-15T09:24:11;41.95;;;22.45;;
68614;SDS011;55593;51.994;5.882;2022-12-15T09:26:41;48.05;;;23.95;;
68614;SDS011;55593;51.994;5.882;2022-12-15T09:29:11;38.65;;;25.08;;
68614;SDS011;55593;51.994;5.882;2022-12-15T09:31:41;44.28;;;25.25;;
68614;SDS011;55593;51.994;5.882;2022-12-15T09:34:12;43.88;;;24.67;;
68614;SDS011;55593;51.994;5.882;2022-12-15T09:36:45;40.75;;;25.10;;
68614;SDS011;55593;51.994;5.882;2022-12-15T09:39:14;43.42;;;25.45;;
68614;SDS011;55593;51.994;5.882;2022-12-15T09:41:47;43.58;;;25.50;;
68614;SDS011;55593;51.994;5.882;2022-12-15T09:44:19;38.25;;;25.20;;
68614;SDS011;55593;51.994;5.882;2022-12-15T09:46:53;42.55;;;26.17;;
68614;SDS011;55593;51.994;5.882;2022-12-15T09:52:05;48.85;;;26.02;;
68614;SDS011;55593;51.994;5.882;2022-12-15T09:54:38;48.75;;;26.60;;
68614;SDS011;55593;51.994;5.882;2022-12-15T09:57:11;44.42;;;26.30;;
68614;SDS011;55593;51.994;5.882;2022-12-15T09:59:50;43.25;;;25.80;;
68614;SDS011;55593;51.994;5.882;2022-12-15T10:05:36;45.75;;;26.48;;
68614;SDS011;55593;51.994;5.882;2022-12-15T10:08:12;46.42;;;26.13;;
68614;SDS011;55593;51.994;5.882;2022-12-15T10:10:44;45.90;;;26.05;;
68614;SDS011;55593;51.994;5.882;2022-12-15T10:13:18;46.03;;;26.17;;
68614;SDS011;55593;51.994;5.882;2022-12-15T10:15:49;44.70;;;27.58;;
68614;SDS011;55593;51.994;5.882;2022-12-15T10:18:24;44.40;;;27.13;;
68614;SDS011;55593;51.994;5.882;2022-12-15T10:20:54;45.15;;;27.27;;
68614;SDS011;55593;51.994;5.882;2022-12-15T10:23:26;48.38;;;25.88;;
68614;SDS011;55593;51.994;5.882;2022-12-15T10:25:57;43.60;;;25.45;;
68614;SDS011;55593;51.994;5.882;2022-12-15T10:31:21;49.53;;;27.27;;
68614;SDS011;55593;51.994;5.882;2022-12-15T10:33:55;45.20;;;27.60;;
68614;SDS011;55593;51.994;5.882;2022-12-15T10:36:27;45.45;;;27.05;;
68614;SDS011;55593;51.994;5.882;2022-12-15T10:38:59;45.47;;;27.17;;
68614;SDS011;55593;51.994;5.882;2022-12-15T10:41:30;49.97;;;29.67;;
68614;SDS011;55593;51.994;5.882;2022-12-15T10:44:00;49.72;;;28.70;;
68614;SDS011;55593;51.994;5.882;2022-12-15T10:46:30;45.38;;;28.05;;
68614;SDS011;55593;51.994;5.882;2022-12-15T10:49:19;47.78;;;27.35;;
68614;SDS011;55593;51.994;5.882;2022-12-15T10:51:50;48.38;;;28.02;;
68614;SDS011;55593;51.994;5.882;2022-12-15T10:54:25;50.53;;;27.75;;
68614;SDS011;55593;51.994;5.882;2022-12-15T10:57:15;48.10;;;27.92;;
68614;SDS011;55593;51.994;5.882;2022-12-15T10:59:45;49.88;;;30.63;;
68614;SDS011;55593;51.994;5.882;2022-12-15T11:02:24;50.28;;;28.70;;
68614;SDS011;55593;51.994;5.882;2022-12-15T11:04:58;45.90;;;28.75;;
68614;SDS011;55593;51.994;5.882;2022-12-15T11:07:32;49.03;;;29.55;;
68614;SDS011;55593;51.994;5.882;2022-12-15T11:10:12;45.50;;;27.65;;
68614;SDS011;55593;51.994;5.882;2022-12-15T11:12:44;50.65;;;28.65;;
68614;SDS011;55593;51.994;5.882;2022-12-15T11:18:05;46.78;;;28.15;;
68614;SDS011;55593;51.994;5.882;2022-12-15T11:20:39;50.17;;;28.58;;
68614;SDS011;55593;51.994;5.882;2022-12-15T11:23:12;51.30;;;28.95;;
68614;SDS011;55593;51.994;5.882;2022-12-15T11:25:50;50.25;;;29.52;;
68614;SDS011;55593;51.994;5.882;2022-12-15T11:28:23;46.80;;;27.00;;
68614;SDS011;55593;51.994;5.882;2022-12-15T11:30:58;53.58;;;29.88;;
68614;SDS011;55593;51.994;5.882;2022-12-15T11:33:30;46.70;;;27.45;;
68614;SDS011;55593;51.994;5.882;2022-12-15T11:36:02;55.63;;;30.08;;
68614;SDS011;55593;51.994;5.882;2022-12-15T11:41:11;44.35;;;29.15;;
68614;SDS011;55593;51.994;5.882;2022-12-15T11:43:49;47.72;;;29.40;;
68614;SDS011;55593;51.994;5.882;2022-12-15T11:46:26;44.15;;;28.40;;
68614;SDS011;55593;51.994;5.882;2022-12-15T11:49:03;48.90;;;28.90;;
68614;SDS011;55593;51.994;5.882;2022-12-15T11:51:44;50.55;;;30.65;;
68614;SDS011;55593;51.994;5.882;2022-12-15T11:54:18;51.67;;;29.75;;
68614;SDS011;55593;51.994;5.882;2022-12-15T11:56:55;48.13;;;28.50;;
68614;SDS011;55593;51.994;5.882;2022-12-15T11:59:42;48.70;;;28.83;;
68614;SDS011;55593;51.994;5.882;2022-12-15T12:02:22;53.95;;;30.80;;
68614;SDS011;55593;51.994;5.882;2022-12-15T12:05:01;47.00;;;30.05;;
68614;SDS011;55593;51.994;5.882;2022-12-15T12:07:43;50.72;;;28.73;;
68614;SDS011;55593;51.994;5.882;2022-12-15T12:10:18;48.28;;;29.10;;
68614;SDS011;55593;51.994;5.882;2022-12-15T12:12:58;48.90;;;29.77;;
68614;SDS011;55593;51.994;5.882;2022-12-15T12:15:32;43.85;;;28.25;;
68614;SDS011;55593;51.994;5.882;2022-12-15T12:18:06;53.70;;;28.55;;
68614;SDS011;55593;51.994;5.882;2022-12-15T12:20:41;48.00;;;27.75;;
68614;SDS011;55593;51.994;5.882;2022-12-15T12:23:13;48.55;;;28.02;;
68614;SDS011;55593;51.994;5.882;2022-12-15T12:25:47;45.55;;;28.08;;
68614;SDS011;55593;51.994;5.882;2022-12-15T12:28:27;51.17;;;29.98;;
68614;SDS011;55593;51.994;5.882;2022-12-15T12:30:59;37.17;;;22.55;;
68614;SDS011;55593;51.994;5.882;2022-12-15T12:33:31;50.70;;;29.65;;
68614;SDS011;55593;51.994;5.882;2022-12-15T12:36:05;54.17;;;29.95;;
68614;SDS011;55593;51.994;5.882;2022-12-15T12:38:38;50.20;;;29.65;;
68614;SDS011;55593;51.994;5.882;2022-12-15T12:41:13;52.05;;;31.48;;
68614;SDS011;55593;51.994;5.882;2022-12-15T12:43:49;49.88;;;30.67;;
68614;SDS011;55593;51.994;5.882;2022-12-15T12:46:21;54.80;;;31.88;;
68614;SDS011;55593;51.994;5.882;2022-12-15T12:48:53;48.08;;;29.33;;
68614;SDS011;55593;51.994;5.882;2022-12-15T12:51:27;45.75;;;30.45;;
68614;SDS011;55593;51.994;5.882;2022-12-15T12:53:58;54.67;;;30.23;;
68614;SDS011;55593;51.994;5.882;2022-12-15T12:56:32;49.75;;;32.28;;
68614;SDS011;55593;51.994;5.882;2022-12-15T12:59:30;49.97;;;31.25;;
68614;SDS011;55593;51.994;5.882;2022-12-15T13:05:23;48.70;;;30.77;;
68614;SDS011;55593;51.994;5.882;2022-12-15T13:10:48;49.20;;;30.70;;
68614;SDS011;55593;51.994;5.882;2022-12-15T13:16:10;52.97;;;32.50;;
68614;SDS011;55593;51.994;5.882;2022-12-15T13:18:58;53.22;;;32.13;;
68614;SDS011;55593;51.994;5.882;2022-12-15T13:21:51;50.85;;;31.63;;
68614;SDS011;55593;51.994;5.882;2022-12-15T13:24:25;51.20;;;32.15;;
68614;SDS011;55593;51.994;5.882;2022-12-15T13:27:04;50.35;;;31.20;;
68614;SDS011;55593;51.994;5.882;2022-12-15T13:29:55;49.92;;;30.30;;
68614;SDS011;55593;51.994;5.882;2022-12-15T13:32:33;50.05;;;32.65;;
68614;SDS011;55593;51.994;5.882;2022-12-15T13:35:19;58.75;;;31.27;;
68614;SDS011;55593;51.994;5.882;2022-12-15T13:40:23;59.45;;;32.17;;
68614;SDS011;55593;51.994;5.882;2022-12-15T13:42:58;50.22;;;30.98;;
68614;SDS011;55593;51.994;5.882;2022-12-15T13:45:46;56.05;;;32.35;;
68614;SDS011;55593;51.994;5.882;2022-12-15T13:48:29;53.42;;;31.48;;
68614;SDS011;55593;51.994;5.882;2022-12-15T13:51:02;48.53;;;32.13;;
68614;SDS011;55593;51.994;5.882;2022-12-15T13:53:40;49.20;;;32.90;;
68614;SDS011;55593;51.994;5.882;2022-12-15T13:56:22;54.92;;;33.08;;
68614;SDS011;55593;51.994;5.882;2022-12-15T13:58:55;54.45;;;30.67;;
68614;SDS011;55593;51.994;5.882;2022-12-15T14:01:29;51.22;;;31.52;;
68614;SDS011;55593;51.994;5.882;2022-12-15T14:04:08;55.00;;;32.60;;
68614;SDS011;55593;51.994;5.882;2022-12-15T14:06:44;54.72;;;31.95;;
68614;SDS011;55593;51.994;5.882;2022-12-15T14:09:16;48.90;;;30.20;;
68614;SDS011;55593;51.994;5.882;2022-12-15T14:11:48;55.30;;;31.83;;
68614;SDS011;55593;51.994;5.882;2022-12-15T14:14:18;55.05;;;31.92;;
68614;SDS011;55593;51.994;5.882;2022-12-15T14:16:52;56.92;;;31.52;;
68614;SDS011;55593;51.994;5.882;2022-12-15T14:19:26;48.95;;;32.00;;
68614;SDS011;55593;51.994;5.882;2022-12-15T14:22:15;50.10;;;31.70;;
68614;SDS011;55593;51.994;5.882;2022-12-15T14:24:46;49.50;;;30.10;;
68614;SDS011;55593;51.994;5.882;2022-12-15T14:27:25;51.33;;;32.00;;
68614;SDS011;55593;51.994;5.882;2022-12-15T14:30:07;55.75;;;32.33;;
68614;SDS011;55593;51.994;5.882;2022-12-15T14:32:43;55.85;;;33.47;;
68614;SDS011;55593;51.994;5.882;2022-12-15T14:35:18;55.65;;;34.78;;
68614;SDS011;55593;51.994;5.882;2022-12-15T14:37:51;51.53;;;33.35;;
68614;SDS011;55593;51.994;5.882;2022-12-15T14:40:21;56.70;;;34.20;;
68614;SDS011;55593;51.994;5.882;2022-12-15T14:42:51;59.88;;;34.00;;
68614;SDS011;55593;51.994;5.882;2022-12-15T14:45:23;56.47;;;34.17;;
68614;SDS011;55593;51.994;5.882;2022-12-15T14:47:54;59.95;;;34.78;;
68614;SDS011;55593;51.994;5.882;2022-12-15T14:50:28;54.60;;;33.92;;
68614;SDS011;55593;51.994;5.882;2022-12-15T14:52:58;60.88;;;34.72;;
68614;SDS011;55593;51.994;5.882;2022-12-15T14:55:30;61.60;;;34.28;;
68614;SDS011;55593;51.994;5.882;2022-12-15T14:58:00;56.22;;;35.45;;
68614;SDS011;55593;51.994;5.882;2022-12-15T15:00:31;52.30;;;32.47;;
68614;SDS011;55593;51.994;5.882;2022-12-15T15:03:14;57.05;;;35.30;;
68614;SDS011;55593;51.994;5.882;2022-12-15T15:05:50;59.35;;;36.40;;
68614;SDS011;55593;51.994;5.882;2022-12-15T15:08:25;53.17;;;35.13;;
68614;SDS011;55593;51.994;5.882;2022-12-15T15:10:56;62.03;;;35.03;;
68614;SDS011;55593;51.994;5.882;2022-12-15T15:13:28;53.67;;;34.75;;
68614;SDS011;55593;51.994;5.882;2022-12-15T15:16:04;59.65;;;35.30;;
68614;SDS011;55593;51.994;5.882;2022-12-15T15:18:35;58.60;;;35.22;;
68614;SDS011;55593;51.994;5.882;2022-12-15T15:21:09;59.13;;;34.47;;
68614;SDS011;55593;51.994;5.882;2022-12-15T15:23:55;54.95;;;33.20;;
68614;SDS011;55593;51.994;5.882;2022-12-15T15:26:25;55.75;;;34.28;;
68614;SDS011;55593;51.994;5.882;2022-12-15T15:28:55;54.30;;;34.20;;
68614;SDS011;55593;51.994;5.882;2022-12-15T15:31:26;58.40;;;36.05;;
68614;SDS011;55593;51.994;5.882;2022-12-15T15:33:57;59.78;;;35.15;;
68614;SDS011;55593;51.994;5.882;2022-12-15T15:36:30;57.80;;;34.35;;